sensor_id;sensor_type;location;lat;lon;timestamp;P1;durP1;ratioP1;P2;durP2;ratioP2
44254;SDS011;29933;47.226;15.734;2022-10-16T00:01:19;32.10;;;19.38;;
44254;SDS011;29933;47.226;15.734;2022-10-16T00:03:48;30.42;;;18.85;;
44254;SDS011;29933;47.226;15.734;2022-10-16T00:06:14;30.35;;;16.50;;
44254;SDS011;29933;47.226;15.734;2022-10-16T00:08:43;30.70;;;16.97;;
44254;SDS011;29933;47.226;15.734;2022-10-16T00:11:21;29.08;;;18.20;;
44254;SDS011;29933;47.226;15.734;2022-10-16T00:13:58;30.73;;;16.42;;
44254;SDS011;29933;47.226;15.734;2022-10-16T00:16:26;26.17;;;17.10;;
44254;SDS011;29933;47.226;15.734;2022-10-16T00:18:53;30.13;;;17.08;;
44254;SDS011;29933;47.226;15.734;2022-10-16T00:21:20;29.77;;;16.20;;
44254;SDS011;29933;47.226;15.734;2022-10-16T00:23:51;27.02;;;16.20;;
44254;SDS011;29933;47.226;15.734;2022-10-16T00:26:19;32.28;;;16.90;;
44254;SDS011;29933;47.226;15.734;2022-10-16T00:28:46;27.40;;;16.13;;
44254;SDS011;29933;47.226;15.734;2022-10-16T00:31:16;30.30;;;16.00;;
44254;SDS011;29933;47.226;15.734;2022-10-16T00:33:44;28.88;;;15.00;;
44254;SDS011;29933;47.226;15.734;2022-10-16T00:36:11;26.77;;;16.35;;
44254;SDS011;29933;47.226;15.734;2022-10-16T00:38:41;22.70;;;14.55;;
44254;SDS011;29933;47.226;15.734;2022-10-16T00:41:09;24.25;;;15.95;;
44254;SDS011;29933;47.226;15.734;2022-10-16T00:43:49;27.27;;;15.02;;
44254;SDS011;29933;47.226;15.734;2022-10-16T00:46:25;25.30;;;15.07;;
44254;SDS011;29933;47.226;15.734;2022-10-16T00:51:42;26.02;;;16.15;;
44254;SDS011;29933;47.226;15.734;2022-10-16T00:54:19;19.50;;;12.93;;
44254;SDS011;29933;47.226;15.734;2022-10-16T00:56:49;24.88;;;14.13;;
44254;SDS011;29933;47.226;15.734;2022-10-16T00:59:20;25.00;;;14.48;;
44254;SDS011;29933;47.226;15.734;2022-10-16T01:02:01;20.80;;;14.85;;
44254;SDS011;29933;47.226;15.734;2022-10-16T01:04:34;22.42;;;12.20;;
44254;SDS011;29933;47.226;15.734;2022-10-16T01:07:11;22.25;;;14.38;;
44254;SDS011;29933;47.226;15.734;2022-10-16T01:15:42;21.40;;;12.80;;
44254;SDS011;29933;47.226;15.734;2022-10-16T01:24:08;19.77;;;11.27;;
44254;SDS011;29933;47.226;15.734;2022-10-16T01:40:32;18.67;;;10.50;;
44254;SDS011;29933;47.226;15.734;2022-10-16T01:46:08;22.20;;;11.20;;
44254;SDS011;29933;47.226;15.734;2022-10-16T01:48:35;18.23;;;10.23;;
44254;SDS011;29933;47.226;15.734;2022-10-16T01:51:20;15.30;;;10.93;;
44254;SDS011;29933;47.226;15.734;2022-10-16T01:53:48;18.90;;;11.05;;
44254;SDS011;29933;47.226;15.734;2022-10-16T01:56:19;18.02;;;12.25;;
44254;SDS011;29933;47.226;15.734;2022-10-16T01:59:09;13.80;;;9.52;;
44254;SDS011;29933;47.226;15.734;2022-10-16T02:01:40;17.48;;;9.80;;
44254;SDS011;29933;47.226;15.734;2022-10-16T02:04:16;16.13;;;10.27;;
44254;SDS011;29933;47.226;15.734;2022-10-16T02:06:53;14.88;;;9.50;;
44254;SDS011;29933;47.226;15.734;2022-10-16T02:09:20;15.20;;;9.60;;
44254;SDS011;29933;47.226;15.734;2022-10-16T02:11:46;15.27;;;9.82;;
44254;SDS011;29933;47.226;15.734;2022-10-16T02:14:14;13.85;;;9.77;;
44254;SDS011;29933;47.226;15.734;2022-10-16T02:16:41;13.48;;;10.52;;
44254;SDS011;29933;47.226;15.734;2022-10-16T02:19:10;12.00;;;9.10;;
44254;SDS011;29933;47.226;15.734;2022-10-16T02:27:13;11.00;;;8.63;;
44254;SDS011;29933;47.226;15.734;2022-10-16T02:29:49;15.52;;;9.50;;
44254;SDS011;29933;47.226;15.734;2022-10-16T02:32:24;23.80;;;11.93;;
44254;SDS011;29933;47.226;15.734;2022-10-16T02:34:56;14.60;;;9.48;;
44254;SDS011;29933;47.226;15.734;2022-10-16T02:37:25;11.85;;;8.23;;
44254;SDS011;29933;47.226;15.734;2022-10-16T02:39:52;14.55;;;8.80;;
44254;SDS011;29933;47.226;15.734;2022-10-16T02:42:20;16.33;;;9.35;;
44254;SDS011;29933;47.226;15.734;2022-10-16T02:44:53;13.63;;;8.73;;
44254;SDS011;29933;47.226;15.734;2022-10-16T02:47:18;17.02;;;8.85;;
44254;SDS011;29933;47.226;15.734;2022-10-16T02:49:44;12.85;;;8.98;;
44254;SDS011;29933;47.226;15.734;2022-10-16T02:52:10;16.25;;;9.55;;
44254;SDS011;29933;47.226;15.734;2022-10-16T02:54:36;12.13;;;8.40;;
44254;SDS011;29933;47.226;15.734;2022-10-16T02:57:02;17.65;;;9.90;;
44254;SDS011;29933;47.226;15.734;2022-10-16T02:59:28;13.15;;;8.65;;
44254;SDS011;29933;47.226;15.734;2022-10-16T03:01:53;13.00;;;8.55;;
44254;SDS011;29933;47.226;15.734;2022-10-16T03:04:19;12.38;;;7.78;;
44254;SDS011;29933;47.226;15.734;2022-10-16T03:06:45;12.90;;;7.80;;
44254;SDS011;29933;47.226;15.734;2022-10-16T03:09:11;12.88;;;7.95;;
44254;SDS011;29933;47.226;15.734;2022-10-16T03:11:37;11.20;;;7.70;;
44254;SDS011;29933;47.226;15.734;2022-10-16T03:14:02;13.27;;;8.40;;
44254;SDS011;29933;47.226;15.734;2022-10-16T03:16:28;12.25;;;8.63;;
44254;SDS011;29933;47.226;15.734;2022-10-16T03:18:54;14.73;;;9.73;;
44254;SDS011;29933;47.226;15.734;2022-10-16T03:21:20;11.27;;;7.63;;
44254;SDS011;29933;47.226;15.734;2022-10-16T03:23:46;9.60;;;7.13;;
44254;SDS011;29933;47.226;15.734;2022-10-16T03:26:12;11.38;;;7.95;;
44254;SDS011;29933;47.226;15.734;2022-10-16T03:28:37;11.00;;;7.15;;
44254;SDS011;29933;47.226;15.734;2022-10-16T03:31:03;10.45;;;7.93;;
44254;SDS011;29933;47.226;15.734;2022-10-16T03:33:29;9.43;;;7.07;;
44254;SDS011;29933;47.226;15.734;2022-10-16T03:35:55;14.95;;;8.48;;
44254;SDS011;29933;47.226;15.734;2022-10-16T03:38:21;12.75;;;7.80;;
44254;SDS011;29933;47.226;15.734;2022-10-16T03:40:47;10.52;;;7.22;;
44254;SDS011;29933;47.226;15.734;2022-10-16T03:43:13;13.15;;;7.10;;
44254;SDS011;29933;47.226;15.734;2022-10-16T03:45:39;13.38;;;8.82;;
44254;SDS011;29933;47.226;15.734;2022-10-16T03:48:05;8.77;;;6.60;;
44254;SDS011;29933;47.226;15.734;2022-10-16T03:50:31;9.43;;;6.20;;
44254;SDS011;29933;47.226;15.734;2022-10-16T03:52:56;15.38;;;8.43;;
44254;SDS011;29933;47.226;15.734;2022-10-16T03:55:22;8.65;;;7.50;;
44254;SDS011;29933;47.226;15.734;2022-10-16T03:57:48;10.90;;;7.78;;
44254;SDS011;29933;47.226;15.734;2022-10-16T04:00:14;13.15;;;8.52;;
44254;SDS011;29933;47.226;15.734;2022-10-16T04:02:40;11.70;;;6.63;;
44254;SDS011;29933;47.226;15.734;2022-10-16T04:05:06;9.80;;;6.82;;
44254;SDS011;29933;47.226;15.734;2022-10-16T04:07:32;13.18;;;8.00;;
44254;SDS011;29933;47.226;15.734;2022-10-16T04:09:58;12.07;;;6.93;;
44254;SDS011;29933;47.226;15.734;2022-10-16T04:12:24;9.65;;;6.82;;
44254;SDS011;29933;47.226;15.734;2022-10-16T04:14:51;11.75;;;8.32;;
44254;SDS011;29933;47.226;15.734;2022-10-16T04:17:17;15.73;;;8.13;;
44254;SDS011;29933;47.226;15.734;2022-10-16T04:19:43;12.70;;;7.72;;
44254;SDS011;29933;47.226;15.734;2022-10-16T04:22:09;11.75;;;7.93;;
44254;SDS011;29933;47.226;15.734;2022-10-16T04:24:35;11.43;;;7.45;;
44254;SDS011;29933;47.226;15.734;2022-10-16T04:27:01;10.48;;;6.57;;
44254;SDS011;29933;47.226;15.734;2022-10-16T04:29:27;11.93;;;7.00;;
44254;SDS011;29933;47.226;15.734;2022-10-16T04:31:53;7.43;;;6.60;;
44254;SDS011;29933;47.226;15.734;2022-10-16T04:34:18;13.45;;;6.88;;
44254;SDS011;29933;47.226;15.734;2022-10-16T04:36:46;9.20;;;6.72;;
44254;SDS011;29933;47.226;15.734;2022-10-16T04:39:14;14.35;;;7.30;;
44254;SDS011;29933;47.226;15.734;2022-10-16T04:41:40;10.45;;;5.93;;
44254;SDS011;29933;47.226;15.734;2022-10-16T04:44:07;9.02;;;6.07;;
44254;SDS011;29933;47.226;15.734;2022-10-16T04:46:33;15.68;;;7.60;;
44254;SDS011;29933;47.226;15.734;2022-10-16T04:48:59;13.43;;;6.35;;
44254;SDS011;29933;47.226;15.734;2022-10-16T04:51:25;8.18;;;6.25;;
44254;SDS011;29933;47.226;15.734;2022-10-16T04:53:52;12.05;;;5.95;;
44254;SDS011;29933;47.226;15.734;2022-10-16T04:56:19;9.38;;;6.25;;
44254;SDS011;29933;47.226;15.734;2022-10-16T04:58:46;7.75;;;6.47;;
44254;SDS011;29933;47.226;15.734;2022-10-16T05:01:12;7.82;;;6.60;;
44254;SDS011;29933;47.226;15.734;2022-10-16T05:03:38;8.98;;;6.35;;
44254;SDS011;29933;47.226;15.734;2022-10-16T05:06:05;12.90;;;7.03;;
44254;SDS011;29933;47.226;15.734;2022-10-16T05:08:32;9.57;;;6.93;;
44254;SDS011;29933;47.226;15.734;2022-10-16T05:10:58;10.73;;;6.90;;
44254;SDS011;29933;47.226;15.734;2022-10-16T05:13:24;8.40;;;5.90;;
44254;SDS011;29933;47.226;15.734;2022-10-16T05:15:50;10.98;;;7.10;;
44254;SDS011;29933;47.226;15.734;2022-10-16T05:18:17;9.75;;;5.85;;
44254;SDS011;29933;47.226;15.734;2022-10-16T05:20:42;12.02;;;6.40;;
44254;SDS011;29933;47.226;15.734;2022-10-16T05:23:08;11.82;;;6.53;;
44254;SDS011;29933;47.226;15.734;2022-10-16T05:25:37;8.45;;;5.57;;
44254;SDS011;29933;47.226;15.734;2022-10-16T05:28:03;10.68;;;6.95;;
44254;SDS011;29933;47.226;15.734;2022-10-16T05:30:29;12.10;;;6.18;;
44254;SDS011;29933;47.226;15.734;2022-10-16T05:32:55;9.05;;;6.82;;
44254;SDS011;29933;47.226;15.734;2022-10-16T05:35:21;8.15;;;5.72;;
44254;SDS011;29933;47.226;15.734;2022-10-16T05:37:47;7.47;;;5.95;;
44254;SDS011;29933;47.226;15.734;2022-10-16T05:40:13;10.07;;;6.32;;
44254;SDS011;29933;47.226;15.734;2022-10-16T05:42:40;11.25;;;6.97;;
44254;SDS011;29933;47.226;15.734;2022-10-16T05:45:06;9.45;;;6.47;;
44254;SDS011;29933;47.226;15.734;2022-10-16T05:47:35;8.30;;;6.60;;
44254;SDS011;29933;47.226;15.734;2022-10-16T05:50:01;8.68;;;6.43;;
44254;SDS011;29933;47.226;15.734;2022-10-16T05:52:29;10.05;;;7.00;;
44254;SDS011;29933;47.226;15.734;2022-10-16T05:54:55;8.48;;;5.70;;
44254;SDS011;29933;47.226;15.734;2022-10-16T05:57:20;11.35;;;6.65;;
44254;SDS011;29933;47.226;15.734;2022-10-16T05:59:46;7.70;;;6.13;;
44254;SDS011;29933;47.226;15.734;2022-10-16T06:02:13;11.20;;;7.63;;
44254;SDS011;29933;47.226;15.734;2022-10-16T06:04:39;9.45;;;6.20;;
44254;SDS011;29933;47.226;15.734;2022-10-16T06:07:05;7.63;;;6.07;;
44254;SDS011;29933;47.226;15.734;2022-10-16T06:09:31;9.00;;;5.50;;
44254;SDS011;29933;47.226;15.734;2022-10-16T06:11:57;8.55;;;6.18;;
44254;SDS011;29933;47.226;15.734;2022-10-16T06:14:23;8.18;;;6.20;;
44254;SDS011;29933;47.226;15.734;2022-10-16T06:16:49;8.82;;;6.63;;
44254;SDS011;29933;47.226;15.734;2022-10-16T06:19:15;7.90;;;5.88;;
44254;SDS011;29933;47.226;15.734;2022-10-16T06:21:42;9.52;;;6.85;;
44254;SDS011;29933;47.226;15.734;2022-10-16T06:24:08;9.57;;;7.20;;
44254;SDS011;29933;47.226;15.734;2022-10-16T06:26:34;7.80;;;5.80;;
44254;SDS011;29933;47.226;15.734;2022-10-16T06:29:00;8.38;;;6.18;;
44254;SDS011;29933;47.226;15.734;2022-10-16T06:31:27;9.18;;;6.00;;
44254;SDS011;29933;47.226;15.734;2022-10-16T06:33:56;10.80;;;7.03;;
44254;SDS011;29933;47.226;15.734;2022-10-16T06:36:22;20.48;;;6.90;;
44254;SDS011;29933;47.226;15.734;2022-10-16T06:38:49;8.93;;;6.20;;
44254;SDS011;29933;47.226;15.734;2022-10-16T06:41:17;10.73;;;5.70;;
44254;SDS011;29933;47.226;15.734;2022-10-16T06:43:45;8.27;;;6.43;;
44254;SDS011;29933;47.226;15.734;2022-10-16T06:46:12;8.93;;;5.53;;
44254;SDS011;29933;47.226;15.734;2022-10-16T06:48:41;11.70;;;6.90;;
44254;SDS011;29933;47.226;15.734;2022-10-16T06:51:20;11.73;;;6.18;;
44254;SDS011;29933;47.226;15.734;2022-10-16T06:53:51;10.60;;;6.78;;
44254;SDS011;29933;47.226;15.734;2022-10-16T06:56:19;10.23;;;6.93;;
44254;SDS011;29933;47.226;15.734;2022-10-16T06:58:48;11.98;;;7.30;;
44254;SDS011;29933;47.226;15.734;2022-10-16T07:01:15;12.95;;;6.88;;
44254;SDS011;29933;47.226;15.734;2022-10-16T07:03:43;9.80;;;6.80;;
44254;SDS011;29933;47.226;15.734;2022-10-16T07:06:12;7.90;;;6.50;;
44254;SDS011;29933;47.226;15.734;2022-10-16T07:08:45;8.10;;;6.18;;
44254;SDS011;29933;47.226;15.734;2022-10-16T07:11:13;7.60;;;5.40;;
44254;SDS011;29933;47.226;15.734;2022-10-16T07:13:42;11.43;;;8.00;;
44254;SDS011;29933;47.226;15.734;2022-10-16T07:16:13;8.48;;;5.65;;
44254;SDS011;29933;47.226;15.734;2022-10-16T07:18:42;10.40;;;6.43;;
44254;SDS011;29933;47.226;15.734;2022-10-16T07:21:14;11.20;;;6.75;;
44254;SDS011;29933;47.226;15.734;2022-10-16T07:23:44;12.45;;;7.15;;
44254;SDS011;29933;47.226;15.734;2022-10-16T07:26:10;9.25;;;6.40;;
44254;SDS011;29933;47.226;15.734;2022-10-16T07:28:36;16.17;;;6.35;;
44254;SDS011;29933;47.226;15.734;2022-10-16T07:31:05;8.68;;;6.30;;
44254;SDS011;29933;47.226;15.734;2022-10-16T07:33:33;10.88;;;6.45;;
44254;SDS011;29933;47.226;15.734;2022-10-16T07:36:00;7.60;;;6.15;;
44254;SDS011;29933;47.226;15.734;2022-10-16T07:38:25;8.93;;;5.65;;
44254;SDS011;29933;47.226;15.734;2022-10-16T07:41:01;11.40;;;6.63;;
44254;SDS011;29933;47.226;15.734;2022-10-16T07:43:30;8.50;;;6.97;;
44254;SDS011;29933;47.226;15.734;2022-10-16T07:45:56;6.85;;;5.85;;
44254;SDS011;29933;47.226;15.734;2022-10-16T07:48:23;8.48;;;6.78;;
44254;SDS011;29933;47.226;15.734;2022-10-16T07:50:56;9.63;;;6.82;;
44254;SDS011;29933;47.226;15.734;2022-10-16T07:53:26;10.15;;;7.10;;
44254;SDS011;29933;47.226;15.734;2022-10-16T07:55:57;7.50;;;6.70;;
44254;SDS011;29933;47.226;15.734;2022-10-16T07:58:28;12.93;;;7.57;;
44254;SDS011;29933;47.226;15.734;2022-10-16T08:00:55;9.30;;;6.00;;
44254;SDS011;29933;47.226;15.734;2022-10-16T08:03:21;10.75;;;5.97;;
44254;SDS011;29933;47.226;15.734;2022-10-16T08:05:48;8.02;;;5.70;;
44254;SDS011;29933;47.226;15.734;2022-10-16T08:08:15;9.57;;;6.85;;
44254;SDS011;29933;47.226;15.734;2022-10-16T08:10:42;8.95;;;5.82;;
44254;SDS011;29933;47.226;15.734;2022-10-16T08:13:09;7.72;;;6.47;;
44254;SDS011;29933;47.226;15.734;2022-10-16T08:15:35;8.98;;;6.35;;
44254;SDS011;29933;47.226;15.734;2022-10-16T08:18:01;13.82;;;6.68;;
44254;SDS011;29933;47.226;15.734;2022-10-16T08:20:30;7.53;;;5.13;;
44254;SDS011;29933;47.226;15.734;2022-10-16T08:22:58;8.07;;;5.95;;
44254;SDS011;29933;47.226;15.734;2022-10-16T08:25:25;7.88;;;6.97;;
44254;SDS011;29933;47.226;15.734;2022-10-16T08:27:52;6.28;;;5.38;;
44254;SDS011;29933;47.226;15.734;2022-10-16T08:30:18;9.98;;;5.95;;
44254;SDS011;29933;47.226;15.734;2022-10-16T08:32:46;10.05;;;7.00;;
44254;SDS011;29933;47.226;15.734;2022-10-16T08:35:12;7.68;;;6.07;;
44254;SDS011;29933;47.226;15.734;2022-10-16T08:37:39;6.88;;;6.15;;
44254;SDS011;29933;47.226;15.734;2022-10-16T08:40:06;8.43;;;6.00;;
44254;SDS011;29933;47.226;15.734;2022-10-16T08:46:00;7.63;;;6.30;;
44254;SDS011;29933;47.226;15.734;2022-10-16T08:51:32;8.60;;;6.50;;
44254;SDS011;29933;47.226;15.734;2022-10-16T08:54:03;11.43;;;7.03;;
44254;SDS011;29933;47.226;15.734;2022-10-16T08:56:47;7.85;;;6.15;;
44254;SDS011;29933;47.226;15.734;2022-10-16T08:59:13;8.93;;;5.95;;
44254;SDS011;29933;47.226;15.734;2022-10-16T09:01:45;11.02;;;7.50;;
44254;SDS011;29933;47.226;15.734;2022-10-16T09:07:18;7.57;;;5.65;;
44254;SDS011;29933;47.226;15.734;2022-10-16T09:10:19;7.05;;;5.88;;
44254;SDS011;29933;47.226;15.734;2022-10-16T09:13:17;7.65;;;5.85;;
44254;SDS011;29933;47.226;15.734;2022-10-16T09:16:19;7.60;;;5.78;;
44254;SDS011;29933;47.226;15.734;2022-10-16T09:19:09;5.53;;;5.00;;
44254;SDS011;29933;47.226;15.734;2022-10-16T09:21:46;8.88;;;5.90;;
44254;SDS011;29933;47.226;15.734;2022-10-16T09:26:46;7.05;;;5.70;;
44254;SDS011;29933;47.226;15.734;2022-10-16T09:29:13;8.88;;;7.13;;
44254;SDS011;29933;47.226;15.734;2022-10-16T09:31:41;7.97;;;7.18;;
44254;SDS011;29933;47.226;15.734;2022-10-16T09:36:57;6.40;;;5.53;;
44254;SDS011;29933;47.226;15.734;2022-10-16T09:39:24;7.32;;;6.45;;
44254;SDS011;29933;47.226;15.734;2022-10-16T09:41:50;8.25;;;6.75;;
44254;SDS011;29933;47.226;15.734;2022-10-16T09:47:03;8.60;;;7.30;;
44254;SDS011;29933;47.226;15.734;2022-10-16T09:52:40;8.85;;;7.70;;
44254;SDS011;29933;47.226;15.734;2022-10-16T09:55:17;8.82;;;7.90;;
44254;SDS011;29933;47.226;15.734;2022-10-16T09:57:53;9.57;;;8.68;;
44254;SDS011;29933;47.226;15.734;2022-10-16T10:00:22;8.65;;;7.43;;
44254;SDS011;29933;47.226;15.734;2022-10-16T10:02:49;7.13;;;6.13;;
44254;SDS011;29933;47.226;15.734;2022-10-16T10:05:26;7.22;;;6.10;;
44254;SDS011;29933;47.226;15.734;2022-10-16T10:08:03;7.32;;;6.63;;
44254;SDS011;29933;47.226;15.734;2022-10-16T10:10:34;8.27;;;7.25;;
44254;SDS011;29933;47.226;15.734;2022-10-16T10:13:20;7.88;;;7.07;;
44254;SDS011;29933;47.226;15.734;2022-10-16T10:15:51;9.27;;;8.38;;
44254;SDS011;29933;47.226;15.734;2022-10-16T10:18:18;10.00;;;7.17;;
44254;SDS011;29933;47.226;15.734;2022-10-16T10:20:57;8.98;;;7.18;;
44254;SDS011;29933;47.226;15.734;2022-10-16T10:23:33;8.82;;;7.32;;
44254;SDS011;29933;47.226;15.734;2022-10-16T10:28:50;10.85;;;9.43;;
44254;SDS011;29933;47.226;15.734;2022-10-16T10:41:01;8.20;;;7.20;;
44254;SDS011;29933;47.226;15.734;2022-10-16T10:50:14;11.13;;;9.30;;
44254;SDS011;29933;47.226;15.734;2022-10-16T11:16:43;12.13;;;10.02;;
44254;SDS011;29933;47.226;15.734;2022-10-16T11:19:35;13.95;;;11.32;;
44254;SDS011;29933;47.226;15.734;2022-10-16T11:27:58;14.43;;;11.63;;
44254;SDS011;29933;47.226;15.734;2022-10-16T11:37:19;15.30;;;13.18;;
44254;SDS011;29933;47.226;15.734;2022-10-16T11:43:34;15.18;;;12.75;;
44254;SDS011;29933;47.226;15.734;2022-10-16T11:46:12;14.88;;;13.05;;
44254;SDS011;29933;47.226;15.734;2022-10-16T11:48:48;14.77;;;11.02;;
44254;SDS011;29933;47.226;15.734;2022-10-16T11:51:42;13.30;;;11.25;;
44254;SDS011;29933;47.226;15.734;2022-10-16T11:54:59;14.48;;;12.45;;
44254;SDS011;29933;47.226;15.734;2022-10-16T11:58:03;13.98;;;12.27;;
44254;SDS011;29933;47.226;15.734;2022-10-16T12:04:15;18.05;;;14.20;;
44254;SDS011;29933;47.226;15.734;2022-10-16T12:07:08;15.13;;;12.73;;
44254;SDS011;29933;47.226;15.734;2022-10-16T12:09:43;15.05;;;13.20;;
44254;SDS011;29933;47.226;15.734;2022-10-16T12:15:15;16.70;;;12.73;;
44254;SDS011;29933;47.226;15.734;2022-10-16T12:36:32;14.50;;;11.15;;
44254;SDS011;29933;47.226;15.734;2022-10-16T12:55:33;17.73;;;12.98;;
44254;SDS011;29933;47.226;15.734;2022-10-16T12:59:15;14.40;;;11.30;;
44254;SDS011;29933;47.226;15.734;2022-10-16T13:16:30;15.43;;;11.63;;
44254;SDS011;29933;47.226;15.734;2022-10-16T13:22:48;17.95;;;12.10;;
44254;SDS011;29933;47.226;15.734;2022-10-16T13:28:53;14.38;;;12.25;;
44254;SDS011;29933;47.226;15.734;2022-10-16T13:31:23;14.70;;;11.95;;
44254;SDS011;29933;47.226;15.734;2022-10-16T13:33:51;15.13;;;12.63;;
44254;SDS011;29933;47.226;15.734;2022-10-16T13:39:12;14.52;;;11.85;;
44254;SDS011;29933;47.226;15.734;2022-10-16T13:42:06;15.20;;;11.68;;
44254;SDS011;29933;47.226;15.734;2022-10-16T13:44:42;17.88;;;12.13;;
44254;SDS011;29933;47.226;15.734;2022-10-16T13:47:15;18.13;;;14.48;;
44254;SDS011;29933;47.226;15.734;2022-10-16T13:49:42;18.48;;;12.85;;
44254;SDS011;29933;47.226;15.734;2022-10-16T13:52:17;16.10;;;13.52;;
44254;SDS011;29933;47.226;15.734;2022-10-16T13:54:45;15.90;;;12.48;;
44254;SDS011;29933;47.226;15.734;2022-10-16T13:57:12;13.45;;;12.05;;
44254;SDS011;29933;47.226;15.734;2022-10-16T13:59:43;17.42;;;13.13;;
44254;SDS011;29933;47.226;15.734;2022-10-16T14:05:02;15.57;;;12.98;;
44254;SDS011;29933;47.226;15.734;2022-10-16T14:07:34;17.33;;;12.27;;
44254;SDS011;29933;47.226;15.734;2022-10-16T14:10:02;16.45;;;13.05;;
44254;SDS011;29933;47.226;15.734;2022-10-16T14:13:01;19.95;;;13.35;;
44254;SDS011;29933;47.226;15.734;2022-10-16T14:15:32;14.05;;;11.50;;
44254;SDS011;29933;47.226;15.734;2022-10-16T14:18:01;16.90;;;13.38;;
44254;SDS011;29933;47.226;15.734;2022-10-16T14:20:30;16.90;;;13.40;;
44254;SDS011;29933;47.226;15.734;2022-10-16T14:23:03;17.55;;;13.05;;
44254;SDS011;29933;47.226;15.734;2022-10-16T14:26:05;14.43;;;11.85;;
44254;SDS011;29933;47.226;15.734;2022-10-16T14:28:36;15.60;;;12.55;;
44254;SDS011;29933;47.226;15.734;2022-10-16T14:31:27;13.63;;;12.15;;
44254;SDS011;29933;47.226;15.734;2022-10-16T14:33:57;20.60;;;13.23;;
44254;SDS011;29933;47.226;15.734;2022-10-16T14:36:25;17.58;;;13.90;;
44254;SDS011;29933;47.226;15.734;2022-10-16T14:39:06;15.50;;;12.80;;
44254;SDS011;29933;47.226;15.734;2022-10-16T14:41:46;16.05;;;13.40;;
44254;SDS011;29933;47.226;15.734;2022-10-16T14:44:15;19.58;;;15.82;;
44254;SDS011;29933;47.226;15.734;2022-10-16T14:46:44;13.43;;;12.05;;
44254;SDS011;29933;47.226;15.734;2022-10-16T14:51:37;18.48;;;14.10;;
44254;SDS011;29933;47.226;15.734;2022-10-16T14:54:10;17.88;;;12.98;;
44254;SDS011;29933;47.226;15.734;2022-10-16T15:05:21;16.98;;;14.20;;
44254;SDS011;29933;47.226;15.734;2022-10-16T15:07:51;14.80;;;12.07;;
44254;SDS011;29933;47.226;15.734;2022-10-16T15:10:47;15.88;;;13.45;;
44254;SDS011;29933;47.226;15.734;2022-10-16T15:13:13;17.02;;;14.13;;
44254;SDS011;29933;47.226;15.734;2022-10-16T15:15:46;14.90;;;11.38;;
44254;SDS011;29933;47.226;15.734;2022-10-16T15:18:14;19.15;;;14.27;;
44254;SDS011;29933;47.226;15.734;2022-10-16T15:20:47;19.52;;;14.52;;
44254;SDS011;29933;47.226;15.734;2022-10-16T15:23:20;21.50;;;15.02;;
44254;SDS011;29933;47.226;15.734;2022-10-16T15:25:51;21.10;;;15.43;;
44254;SDS011;29933;47.226;15.734;2022-10-16T15:28:21;19.38;;;14.05;;
44254;SDS011;29933;47.226;15.734;2022-10-16T15:30:50;18.63;;;14.07;;
44254;SDS011;29933;47.226;15.734;2022-10-16T15:33:20;18.88;;;14.35;;
44254;SDS011;29933;47.226;15.734;2022-10-16T15:35:59;20.50;;;16.00;;
44254;SDS011;29933;47.226;15.734;2022-10-16T15:38:29;19.45;;;15.50;;
44254;SDS011;29933;47.226;15.734;2022-10-16T15:40:55;19.85;;;14.30;;
44254;SDS011;29933;47.226;15.734;2022-10-16T15:43:23;18.27;;;14.35;;
44254;SDS011;29933;47.226;15.734;2022-10-16T15:45:58;22.27;;;16.88;;
44254;SDS011;29933;47.226;15.734;2022-10-16T15:48:29;21.60;;;15.10;;
44254;SDS011;29933;47.226;15.734;2022-10-16T15:50:59;22.70;;;16.05;;
44254;SDS011;29933;47.226;15.734;2022-10-16T15:53:32;22.58;;;16.13;;
44254;SDS011;29933;47.226;15.734;2022-10-16T15:56:02;19.67;;;14.77;;
44254;SDS011;29933;47.226;15.734;2022-10-16T15:58:36;24.27;;;14.70;;
44254;SDS011;29933;47.226;15.734;2022-10-16T16:01:06;30.15;;;17.48;;
44254;SDS011;29933;47.226;15.734;2022-10-16T16:03:35;22.30;;;16.83;;
44254;SDS011;29933;47.226;15.734;2022-10-16T16:06:06;22.83;;;14.45;;
44254;SDS011;29933;47.226;15.734;2022-10-16T16:08:39;26.83;;;16.38;;
44254;SDS011;29933;47.226;15.734;2022-10-16T16:13:36;22.30;;;15.40;;
44254;SDS011;29933;47.226;15.734;2022-10-16T16:16:13;23.10;;;16.08;;
44254;SDS011;29933;47.226;15.734;2022-10-16T16:18:41;25.48;;;16.38;;
44254;SDS011;29933;47.226;15.734;2022-10-16T16:21:09;21.90;;;15.55;;
44254;SDS011;29933;47.226;15.734;2022-10-16T16:23:37;24.70;;;16.60;;
44254;SDS011;29933;47.226;15.734;2022-10-16T16:28:41;24.55;;;16.15;;
44254;SDS011;29933;47.226;15.734;2022-10-16T16:31:08;25.40;;;16.27;;
44254;SDS011;29933;47.226;15.734;2022-10-16T16:33:34;25.05;;;15.90;;
44254;SDS011;29933;47.226;15.734;2022-10-16T16:36:00;23.55;;;16.15;;
44254;SDS011;29933;47.226;15.734;2022-10-16T16:38:29;29.27;;;18.40;;
44254;SDS011;29933;47.226;15.734;2022-10-16T16:40:56;28.23;;;17.63;;
44254;SDS011;29933;47.226;15.734;2022-10-16T16:43:23;26.75;;;18.10;;
44254;SDS011;29933;47.226;15.734;2022-10-16T16:45:52;31.20;;;17.05;;
44254;SDS011;29933;47.226;15.734;2022-10-16T16:48:22;34.30;;;18.95;;
44254;SDS011;29933;47.226;15.734;2022-10-16T16:50:48;29.52;;;18.13;;
44254;SDS011;29933;47.226;15.734;2022-10-16T16:53:14;24.95;;;16.88;;
44254;SDS011;29933;47.226;15.734;2022-10-16T16:55:40;36.03;;;18.80;;
44254;SDS011;29933;47.226;15.734;2022-10-16T16:58:06;28.83;;;17.75;;
44254;SDS011;29933;47.226;15.734;2022-10-16T17:00:32;32.92;;;19.85;;
44254;SDS011;29933;47.226;15.734;2022-10-16T17:02:58;33.33;;;17.58;;
44254;SDS011;29933;47.226;15.734;2022-10-16T17:05:23;27.00;;;17.50;;
44254;SDS011;29933;47.226;15.734;2022-10-16T17:07:50;30.73;;;19.42;;
44254;SDS011;29933;47.226;15.734;2022-10-16T17:10:16;30.02;;;18.00;;
44254;SDS011;29933;47.226;15.734;2022-10-16T17:12:42;30.00;;;19.50;;
44254;SDS011;29933;47.226;15.734;2022-10-16T17:15:08;33.47;;;20.67;;
44254;SDS011;29933;47.226;15.734;2022-10-16T17:17:34;30.17;;;19.38;;
44254;SDS011;29933;47.226;15.734;2022-10-16T17:20:00;31.15;;;18.33;;
44254;SDS011;29933;47.226;15.734;2022-10-16T17:22:26;37.20;;;19.10;;
44254;SDS011;29933;47.226;15.734;2022-10-16T17:24:52;37.88;;;19.08;;
44254;SDS011;29933;47.226;15.734;2022-10-16T17:27:18;43.78;;;19.35;;
44254;SDS011;29933;47.226;15.734;2022-10-16T17:29:45;38.85;;;18.67;;
44254;SDS011;29933;47.226;15.734;2022-10-16T17:32:15;31.42;;;18.98;;
44254;SDS011;29933;47.226;15.734;2022-10-16T17:34:41;27.10;;;18.77;;
44254;SDS011;29933;47.226;15.734;2022-10-16T17:37:07;32.92;;;19.35;;
44254;SDS011;29933;47.226;15.734;2022-10-16T17:39:32;38.45;;;19.92;;
44254;SDS011;29933;47.226;15.734;2022-10-16T17:41:59;35.17;;;21.00;;
44254;SDS011;29933;47.226;15.734;2022-10-16T17:44:25;38.00;;;20.55;;
44254;SDS011;29933;47.226;15.734;2022-10-16T17:46:51;40.55;;;20.88;;
44254;SDS011;29933;47.226;15.734;2022-10-16T17:49:18;39.92;;;20.05;;
44254;SDS011;29933;47.226;15.734;2022-10-16T17:51:45;35.30;;;19.88;;
44254;SDS011;29933;47.226;15.734;2022-10-16T17:54:14;35.85;;;19.98;;
44254;SDS011;29933;47.226;15.734;2022-10-16T17:56:40;40.25;;;22.83;;
44254;SDS011;29933;47.226;15.734;2022-10-16T17:59:06;39.25;;;22.38;;